Lakedale, North Carolina
Current Conditions -  °F | °C
As of 2:53 AM on Saturday 01 Nov 2014 (Local Time) from KFAY Reporting Station
Light Rain Light Rain  
Wind Chill: 50°   Ceiling: 4300
Heat Index: 50°   Visibility: 4mi
Dew Point: 46°   Wind: 7mph
Humidity: 86%   Direction: 270°W
Pressure: 29.74"   Gusts: NA
Location:  34.9828°N, 78.913°W
Report Text: KFAY 010653Z AUTO 27006KT 4SM -RA BR SCT026 OVC043 10/08 A2974 RMK AO2 RAB18 SLP065 P0005 T01000078
Loading
Personal Weather Stations






























Interactive Weather Map
Tropical Storm Tracking
New forecast layout! Learn more

10-Day Weather Forecast

Advertisements
Track Severe Weather on mobile